Time;durP1;ratioP1;P1;durP2;ratioP2;P2;SDS_P1;SDS_P2;PMS_P1;PMS_P2;Temp;Humidity;BMP_temperature;BMP_pressure;BME280_temperature;BME280_humidity;BME280_pressure;Samples;Min_cycle;Max_cycle;Signal;HPM_P1;HPM_P2
2021/12/21 00:00:29;;;;;;;9.90;6.20;;;;;;;;;;4995954;28;20574;-74
2021/12/21 00:02:58;;;;;;;14.95;6.40;;;;;;;;;;4996044;28;20222;-74
2021/12/21 00:05:28;;;;;;;7.28;5.28;;;;;;;;;;5007786;28;20192;-73
2021/12/21 00:07:56;;;;;;;9.70;6.43;;;;;;;;;;5008846;28;20286;-74
2021/12/21 00:10:25;;;;;;;13.07;5.57;;;;;;;;;;5008230;28;20216;-74
2021/12/21 00:13:04;;;;;;;11.98;6.10;;;;;;;;;;5008526;28;20212;-74
2021/12/21 00:15:41;;;;;;;9.77;5.90;;;;;;;;;;4997434;28;20227;-74
2021/12/21 00:18:21;;;;;;;11.43;5.95;;;;;;;;;;4997727;28;20196;-73
2021/12/21 00:20:56;;;;;;;9.77;6.28;;;;;;;;;;5007989;28;20231;-74
2021/12/21 00:23:34;;;;;;;11.15;6.00;;;;;;;;;;5007257;28;20666;-76
2021/12/21 00:26:03;;;;;;;10.05;5.45;;;;;;;;;;5009321;28;20230;-73
2021/12/21 00:28:35;;;;;;;8.95;5.00;;;;;;;;;;5008875;28;20188;-74
2021/12/21 00:31:02;;;;;;;15.77;6.72;;;;;;;;;;5007187;28;20224;-74
2021/12/21 00:33:31;;;;;;;8.13;5.78;;;;;;;;;;4995580;28;20195;-74
2021/12/21 00:35:58;;;;;;;10.15;6.72;;;;;;;;;;5002820;28;20631;-75
2021/12/21 00:38:25;;;;;;;10.00;5.93;;;;;;;;;;5007509;28;20189;-74
2021/12/21 00:40:52;;;;;;;8.02;5.70;;;;;;;;;;5004930;28;20208;-74
2021/12/21 00:43:20;;;;;;;13.95;6.53;;;;;;;;;;5008519;28;20227;-74
2021/12/21 00:45:47;;;;;;;10.38;6.40;;;;;;;;;;5007039;28;20199;-73
2021/12/21 00:48:15;;;;;;;10.63;6.32;;;;;;;;;;4995415;28;20196;-75
2021/12/21 00:50:44;;;;;;;11.98;6.95;;;;;;;;;;4991140;28;20244;-73
2021/12/21 00:53:12;;;;;;;11.95;6.15;;;;;;;;;;4992306;28;20565;-75
2021/12/21 00:55:39;;;;;;;11.05;7.05;;;;;;;;;;5005520;28;20210;-74
2021/12/21 00:58:06;;;;;;;8.55;5.32;;;;;;;;;;5008157;28;20192;-74
2021/12/21 01:00:33;;;;;;;11.70;6.00;;;;;;;;;;5008971;28;20212;-74
2021/12/21 01:03:07;;;;;;;12.93;5.47;;;;;;;;;;5006882;28;20230;-74
2021/12/21 01:05:41;;;;;;;11.55;6.07;;;;;;;;;;5011353;28;20657;-74
2021/12/21 01:08:14;;;;;;;12.65;6.20;;;;;;;;;;5004645;28;20188;-74
2021/12/21 01:10:53;;;;;;;8.43;6.18;;;;;;;;;;4994861;28;20250;-74
2021/12/21 01:16:16;;;;;;;11.70;6.35;;;;;;;;;;4986751;28;20243;-73
2021/12/21 01:18:56;;;;;;;12.13;6.95;;;;;;;;;;5003076;28;20196;-74
2021/12/21 01:21:28;;;;;;;10.88;6.60;;;;;;;;;;5007396;28;20219;-74
2021/12/21 01:24:11;;;;;;;9.77;6.75;;;;;;;;;;5006696;28;20224;-74
2021/12/21 01:26:50;;;;;;;10.02;6.40;;;;;;;;;;5009979;28;20200;-73
2021/12/21 01:29:25;;;;;;;11.23;6.55;;;;;;;;;;5009673;28;20195;-74
2021/12/21 01:32:00;;;;;;;10.13;6.47;;;;;;;;;;4998302;28;20203;-74
2021/12/21 01:34:39;;;;;;;12.02;6.90;;;;;;;;;;4993650;28;20200;-73
2021/12/21 01:37:15;;;;;;;8.32;5.88;;;;;;;;;;4988865;28;20251;-73
2021/12/21 01:39:56;;;;;;;9.05;6.05;;;;;;;;;;5001439;28;20331;-74
2021/12/21 01:42:34;;;;;;;12.43;6.55;;;;;;;;;;4988414;28;20228;-74
2021/12/21 01:50:23;;;;;;;9.82;6.60;;;;;;;;;;4997106;28;20204;-74
2021/12/21 01:52:50;;;;;;;9.68;5.70;;;;;;;;;;5008115;28;20204;-73
2021/12/21 01:55:19;;;;;;;8.98;6.38;;;;;;;;;;5009731;28;20203;-73
2021/12/21 01:57:46;;;;;;;8.45;5.80;;;;;;;;;;5006518;28;20196;-74
2021/12/21 02:00:14;;;;;;;11.20;6.03;;;;;;;;;;5010432;28;20223;-73
2021/12/21 02:02:41;;;;;;;8.60;6.22;;;;;;;;;;5010963;28;20223;-73
2021/12/21 02:05:08;;;;;;;8.73;5.90;;;;;;;;;;4998132;28;20211;-73
2021/12/21 02:07:35;;;;;;;7.57;5.95;;;;;;;;;;5001288;28;20215;-74
2021/12/21 02:10:03;;;;;;;12.27;6.28;;;;;;;;;;5008501;28;20215;-75
2021/12/21 02:12:32;;;;;;;11.73;6.15;;;;;;;;;;5011383;28;20207;-74
2021/12/21 02:15:01;;;;;;;9.98;6.03;;;;;;;;;;5010146;28;20196;-75
2021/12/21 02:20:19;;;;;;;10.30;6.95;;;;;;;;;;4985926;28;20295;-74
2021/12/21 02:22:52;;;;;;;9.15;5.97;;;;;;;;;;4996891;28;20256;-74
2021/12/21 02:25:37;;;;;;;8.70;6.55;;;;;;;;;;5010165;28;20203;-74
2021/12/21 02:28:22;;;;;;;9.52;5.88;;;;;;;;;;5008957;28;20669;-75
2021/12/21 02:30:53;;;;;;;7.30;5.97;;;;;;;;;;5009621;28;20224;-73
2021/12/21 02:33:21;;;;;;;7.50;5.30;;;;;;;;;;5010516;28;20204;-74
2021/12/21 02:35:51;;;;;;;7.38;6.50;;;;;;;;;;5006745;28;20205;-75
2021/12/21 02:38:18;;;;;;;8.70;5.35;;;;;;;;;;4990230;28;20188;-75
2021/12/21 02:40:45;;;;;;;10.52;6.10;;;;;;;;;;5002617;28;20216;-74
2021/12/21 02:43:13;;;;;;;7.93;6.43;;;;;;;;;;5009284;28;20223;-74
2021/12/21 02:45:41;;;;;;;13.50;5.90;;;;;;;;;;5009057;28;20231;-74
2021/12/21 02:48:09;;;;;;;9.30;5.70;;;;;;;;;;5006606;28;20689;-74
2021/12/21 02:50:38;;;;;;;9.32;6.65;;;;;;;;;;5010523;28;20231;-74
2021/12/21 02:53:07;;;;;;;8.05;6.00;;;;;;;;;;5004410;28;20789;-73
2021/12/21 02:55:35;;;;;;;7.93;6.38;;;;;;;;;;4996320;28;20211;-74
2021/12/21 02:58:02;;;;;;;9.50;5.93;;;;;;;;;;4990584;28;20203;-74
2021/12/21 03:00:31;;;;;;;10.82;6.38;;;;;;;;;;5008389;28;20589;-75
2021/12/21 03:03:02;;;;;;;9.13;6.00;;;;;;;;;;5009178;28;20227;-74
2021/12/21 03:05:30;;;;;;;10.50;6.10;;;;;;;;;;5010834;28;20194;-75
2021/12/21 03:08:08;;;;;;;8.30;6.10;;;;;;;;;;5009060;28;20211;-74
2021/12/21 03:10:38;;;;;;;8.88;6.57;;;;;;;;;;5002037;28;20577;-75
2021/12/21 03:15:46;;;;;;;9.52;5.93;;;;;;;;;;4987997;28;20196;-74
2021/12/21 03:18:14;;;;;;;8.35;5.57;;;;;;;;;;5002865;28;20219;-74
2021/12/21 03:20:41;;;;;;;7.72;5.68;;;;;;;;;;5010213;28;20220;-74
2021/12/21 03:23:08;;;;;;;8.50;5.53;;;;;;;;;;5010315;28;20543;-74
2021/12/21 03:25:37;;;;;;;12.27;6.20;;;;;;;;;;5003252;28;20208;-74
2021/12/21 03:28:04;;;;;;;11.30;6.50;;;;;;;;;;4997072;28;20215;-75
2021/12/21 03:30:31;;;;;;;8.60;6.10;;;;;;;;;;5005808;28;20228;-74
2021/12/21 03:32:58;;;;;;;9.35;5.75;;;;;;;;;;5009169;28;20196;-75
2021/12/21 03:35:25;;;;;;;8.73;5.57;;;;;;;;;;5009203;28;20561;-74
2021/12/21 03:37:53;;;;;;;11.18;6.10;;;;;;;;;;5008896;28;20200;-74
2021/12/21 03:40:20;;;;;;;9.13;6.45;;;;;;;;;;5008626;28;20216;-75
2021/12/21 03:42:48;;;;;;;7.60;5.35;;;;;;;;;;4997094;28;21543;-74
2021/12/21 03:45:16;;;;;;;10.38;5.82;;;;;;;;;;4993743;28;20706;-74
2021/12/21 03:47:43;;;;;;;9.05;5.18;;;;;;;;;;5001054;28;20200;-74
2021/12/21 03:50:17;;;;;;;12.27;5.55;;;;;;;;;;5009347;28;20223;-74
2021/12/21 03:52:44;;;;;;;9.32;5.55;;;;;;;;;;5007880;28;20541;-74
2021/12/21 03:55:12;;;;;;;8.65;5.35;;;;;;;;;;5008468;28;20199;-74
2021/12/21 03:57:39;;;;;;;8.40;5.50;;;;;;;;;;5007349;28;20282;-74
2021/12/21 04:00:09;;;;;;;8.50;5.18;;;;;;;;;;4995026;28;20224;-75
2021/12/21 04:02:36;;;;;;;8.50;6.35;;;;;;;;;;4998078;28;20513;-74
2021/12/21 04:05:03;;;;;;;11.88;5.85;;;;;;;;;;5009362;28;20249;-75
2021/12/21 04:07:30;;;;;;;6.97;5.40;;;;;;;;;;5007623;28;20585;-75
2021/12/21 04:09:57;;;;;;;9.40;6.05;;;;;;;;;;5008764;28;20749;-74
2021/12/21 04:12:24;;;;;;;8.00;5.50;;;;;;;;;;5008448;28;20715;-75
2021/12/21 04:14:52;;;;;;;9.98;5.93;;;;;;;;;;5005449;28;20200;-75
2021/12/21 04:17:23;;;;;;;8.70;5.60;;;;;;;;;;4995551;28;20579;-75
2021/12/21 04:19:51;;;;;;;7.88;5.30;;;;;;;;;;5003158;28;20224;-74
2021/12/21 04:22:19;;;;;;;14.50;6.38;;;;;;;;;;5009923;28;20686;-74
2021/12/21 04:24:46;;;;;;;9.50;7.28;;;;;;;;;;5007609;28;20220;-75
2021/12/21 04:27:13;;;;;;;11.10;5.43;;;;;;;;;;5008233;28;20196;-74
2021/12/21 04:29:40;;;;;;;8.23;5.90;;;;;;;;;;5007587;28;20220;-74
2021/12/21 04:32:08;;;;;;;9.90;5.60;;;;;;;;;;5009608;28;20195;-74
2021/12/21 04:34:38;;;;;;;9.85;5.60;;;;;;;;;;5010656;28;20547;-73
2021/12/21 04:37:06;;;;;;;9.18;6.28;;;;;;;;;;5006751;28;20185;-74
2021/12/21 04:39:38;;;;;;;7.38;5.18;;;;;;;;;;4995664;28;20204;-75
2021/12/21 04:42:06;;;;;;;10.90;6.05;;;;;;;;;;5003524;28;20286;-75
2021/12/21 04:44:33;;;;;;;8.60;6.07;;;;;;;;;;5009286;28;20224;-75
2021/12/21 04:47:01;;;;;;;11.80;7.13;;;;;;;;;;5005843;28;20192;-75
2021/12/21 04:49:28;;;;;;;9.35;5.72;;;;;;;;;;5009594;28;20562;-75
2021/12/21 04:51:57;;;;;;;8.38;5.68;;;;;;;;;;5007368;28;20208;-73
2021/12/21 04:54:24;;;;;;;7.28;5.68;;;;;;;;;;5011598;28;20568;-73
2021/12/21 04:56:51;;;;;;;8.77;5.38;;;;;;;;;;5009912;28;20199;-74
2021/12/21 04:59:20;;;;;;;11.00;6.22;;;;;;;;;;5005447;28;20196;-74
2021/12/21 05:01:47;;;;;;;9.57;6.07;;;;;;;;;;4995661;28;20300;-74
2021/12/21 05:04:14;;;;;;;11.43;5.63;;;;;;;;;;5003463;28;20212;-75
2021/12/21 05:06:41;;;;;;;7.70;5.70;;;;;;;;;;5009364;28;20206;-74
2021/12/21 05:09:13;;;;;;;11.82;6.00;;;;;;;;;;5007852;28;20192;-74
2021/12/21 05:11:43;;;;;;;14.43;6.22;;;;;;;;;;5008840;28;20200;-74
2021/12/21 05:14:10;;;;;;;7.97;5.40;;;;;;;;;;5008868;28;20204;-74
2021/12/21 05:16:38;;;;;;;10.82;5.97;;;;;;;;;;5008301;28;20188;-74
2021/12/21 05:19:05;;;;;;;9.13;5.88;;;;;;;;;;4996099;28;20681;-74
2021/12/21 05:21:33;;;;;;;7.65;5.78;;;;;;;;;;4995610;28;20232;-74
2021/12/21 05:24:00;;;;;;;10.00;6.22;;;;;;;;;;5008357;28;20238;-75
2021/12/21 05:26:28;;;;;;;8.45;5.18;;;;;;;;;;5010442;28;20196;-73
2021/12/21 05:28:56;;;;;;;6.82;5.38;;;;;;;;;;5011146;28;20678;-74
2021/12/21 05:31:23;;;;;;;6.72;5.43;;;;;;;;;;5011770;28;20251;-74
2021/12/21 05:33:51;;;;;;;10.25;6.35;;;;;;;;;;5001442;28;20565;-74
2021/12/21 05:36:20;;;;;;;7.97;5.88;;;;;;;;;;4998939;28;20188;-74
2021/12/21 05:38:50;;;;;;;10.25;6.15;;;;;;;;;;5004505;28;20827;-74
2021/12/21 05:41:24;;;;;;;6.82;4.88;;;;;;;;;;5009378;28;20222;-74
2021/12/21 05:43:53;;;;;;;8.23;5.60;;;;;;;;;;5012196;28;20680;-73
2021/12/21 05:46:20;;;;;;;10.15;5.90;;;;;;;;;;5011614;28;20550;-75
2021/12/21 05:48:51;;;;;;;10.85;5.10;;;;;;;;;;5008562;28;20200;-74
2021/12/21 05:51:18;;;;;;;8.43;5.57;;;;;;;;;;4997228;28;20224;-74
2021/12/21 05:53:45;;;;;;;8.18;5.55;;;;;;;;;;5002932;28;20211;-73
2021/12/21 05:56:13;;;;;;;9.23;5.00;;;;;;;;;;5011874;28;20192;-73
2021/12/21 05:58:40;;;;;;;7.65;5.28;;;;;;;;;;5006773;28;20211;-74
2021/12/21 06:01:08;;;;;;;8.52;5.50;;;;;;;;;;5010502;28;20212;-74
2021/12/21 06:03:35;;;;;;;8.07;5.25;;;;;;;;;;5008858;28;20473;-74
2021/12/21 06:06:03;;;;;;;10.68;5.72;;;;;;;;;;5002739;28;20211;-75
2021/12/21 06:08:30;;;;;;;9.18;4.97;;;;;;;;;;4996952;28;20199;-74
2021/12/21 06:10:59;;;;;;;7.43;5.90;;;;;;;;;;4991479;28;20219;-74
2021/12/21 06:27:10;;;;;;;9.70;5.55;;;;;;;;;;5084514;28;20201;-74
2021/12/21 06:29:37;;;;;;;9.68;5.60;;;;;;;;;;5084374;28;20217;-73
2021/12/21 06:32:05;;;;;;;9.93;5.10;;;;;;;;;;5085428;28;20189;-74
2021/12/21 06:34:34;;;;;;;5.95;4.68;;;;;;;;;;5086849;28;20193;-74
2021/12/21 06:37:01;;;;;;;7.20;5.03;;;;;;;;;;5100000;28;20227;-75
2021/12/21 06:39:28;;;;;;;10.90;5.95;;;;;;;;;;5103609;28;20529;-74
2021/12/21 06:41:56;;;;;;;9.30;6.03;;;;;;;;;;5107336;28;20216;-74
2021/12/21 06:44:23;;;;;;;9.25;6.32;;;;;;;;;;5095560;28;20235;-74
2021/12/21 06:46:54;;;;;;;12.48;7.00;;;;;;;;;;5091524;28;20192;-73
2021/12/21 06:52:05;;;;;;;16.83;8.25;;;;;;;;;;5085616;28;20279;-73
2021/12/21 06:54:32;;;;;;;14.20;9.50;;;;;;;;;;5087494;28;20186;-74
2021/12/21 06:56:59;;;;;;;15.48;8.95;;;;;;;;;;5067828;28;20196;-75
2021/12/21 06:59:26;;;;;;;15.05;8.95;;;;;;;;;;5100351;28;20326;-76
2021/12/21 07:01:54;;;;;;;10.43;7.75;;;;;;;;;;5107560;28;20212;-75
2021/12/21 07:04:21;;;;;;;10.82;6.90;;;;;;;;;;5108063;28;20196;-75
2021/12/21 07:06:49;;;;;;;9.85;6.65;;;;;;;;;;5095024;28;20205;-74
2021/12/21 07:09:21;;;;;;;9.75;6.32;;;;;;;;;;5093297;28;20208;-73
2021/12/21 07:12:11;;;;;;;7.97;6.18;;;;;;;;;;5092334;28;20200;-73
2021/12/21 07:20:00;;;;;;;9.18;6.35;;;;;;;;;;5096396;28;20716;-77
2021/12/21 07:22:27;;;;;;;7.75;5.28;;;;;;;;;;5090581;28;20204;-75
2021/12/21 07:24:56;;;;;;;5.60;4.63;;;;;;;;;;5088121;28;20213;-74
2021/12/21 07:27:23;;;;;;;8.82;5.18;;;;;;;;;;5100421;28;20707;-75
2021/12/21 07:29:50;;;;;;;10.55;4.65;;;;;;;;;;5091207;28;20217;-74
2021/12/21 07:32:17;;;;;;;6.65;5.15;;;;;;;;;;5068569;28;20205;-74
2021/12/21 07:34:45;;;;;;;6.63;4.85;;;;;;;;;;5069365;28;20191;-72
2021/12/21 07:37:12;;;;;;;7.40;5.28;;;;;;;;;;5077243;28;20200;-74
2021/12/21 07:39:39;;;;;;;7.07;5.03;;;;;;;;;;5075004;28;20221;-74
2021/12/21 07:42:08;;;;;;;6.40;5.38;;;;;;;;;;5070380;28;20198;-75
2021/12/21 07:44:35;;;;;;;8.98;6.30;;;;;;;;;;5080179;28;20560;-76
2021/12/21 07:47:02;;;;;;;9.40;5.68;;;;;;;;;;5071305;28;20661;-74
2021/12/21 07:49:29;;;;;;;9.15;6.15;;;;;;;;;;5076854;28;20200;-75
2021/12/21 07:51:57;;;;;;;8.10;5.30;;;;;;;;;;5077426;28;20207;-74
2021/12/21 07:54:24;;;;;;;7.03;4.80;;;;;;;;;;5076386;28;20221;-75
2021/12/21 07:56:51;;;;;;;8.73;5.30;;;;;;;;;;5072805;28;20194;-74
2021/12/21 07:59:20;;;;;;;7.35;4.90;;;;;;;;;;5069821;28;20217;-73
2021/12/21 08:01:47;;;;;;;7.32;4.90;;;;;;;;;;5071662;28;20198;-75
2021/12/21 08:04:15;;;;;;;9.70;5.75;;;;;;;;;;5070655;28;20198;-74
2021/12/21 08:06:45;;;;;;;7.53;5.60;;;;;;;;;;5075314;28;20204;-78
2021/12/21 08:09:12;;;;;;;8.82;5.50;;;;;;;;;;5082553;28;20212;-74
2021/12/21 08:14:22;;;;;;;7.68;4.78;;;;;;;;;;5069085;28;20287;-76
2021/12/21 08:16:49;;;;;;;10.07;6.47;;;;;;;;;;5086390;28;20193;-75
2021/12/21 08:19:16;;;;;;;9.07;5.75;;;;;;;;;;5089320;28;20533;-74
2021/12/21 08:21:44;;;;;;;7.72;5.40;;;;;;;;;;5089057;28;20201;-74
2021/12/21 08:24:11;;;;;;;12.52;6.85;;;;;;;;;;5085281;28;20631;-75
2021/12/21 08:26:38;;;;;;;9.20;5.50;;;;;;;;;;5076476;28;20206;-75
2021/12/21 08:29:05;;;;;;;14.68;5.85;;;;;;;;;;5086027;28;20198;-74
2021/12/21 08:31:34;;;;;;;10.23;5.40;;;;;;;;;;5063824;28;20213;-75
2021/12/21 08:34:01;;;;;;;18.80;6.57;;;;;;;;;;5090091;28;20200;-74
2021/12/21 08:36:29;;;;;;;8.13;4.95;;;;;;;;;;5090635;28;20201;-74
2021/12/21 08:38:56;;;;;;;7.80;4.65;;;;;;;;;;5088795;28;20224;-76
2021/12/21 08:41:24;;;;;;;8.30;5.05;;;;;;;;;;5079700;28;20217;-74
2021/12/21 08:43:52;;;;;;;8.80;5.28;;;;;;;;;;5058611;28;20201;-74
2021/12/21 08:46:19;;;;;;;7.63;4.57;;;;;;;;;;5090213;28;20190;-75
2021/12/21 08:48:48;;;;;;;7.57;5.20;;;;;;;;;;5089674;28;20205;-76
2021/12/21 08:51:15;;;;;;;7.32;5.10;;;;;;;;;;5086918;28;20551;-74
2021/12/21 08:53:43;;;;;;;7.80;5.10;;;;;;;;;;5090380;28;20212;-75
2021/12/21 08:56:10;;;;;;;7.65;5.57;;;;;;;;;;5082402;28;20209;-75
2021/12/21 08:58:37;;;;;;;11.52;5.75;;;;;;;;;;5092452;28;20224;-75
2021/12/21 09:01:05;;;;;;;8.35;5.22;;;;;;;;;;5090804;28;20220;-76
2021/12/21 09:03:33;;;;;;;10.52;5.55;;;;;;;;;;5080536;28;20198;-74
2021/12/21 09:06:02;;;;;;;7.78;4.85;;;;;;;;;;5057530;28;20278;-74
2021/12/21 09:08:29;;;;;;;9.82;5.05;;;;;;;;;;5089018;28;20197;-74
2021/12/21 09:11:02;;;;;;;9.60;4.40;;;;;;;;;;5088015;28;20228;-75
2021/12/21 09:13:29;;;;;;;6.82;4.82;;;;;;;;;;5088889;28;20201;-73
2021/12/21 09:15:57;;;;;;;7.75;5.53;;;;;;;;;;5072217;28;20574;-74
2021/12/21 09:18:24;;;;;;;7.50;5.00;;;;;;;;;;5071100;28;20225;-74
2021/12/21 09:20:51;;;;;;;13.43;5.45;;;;;;;;;;5074221;28;20213;-74
2021/12/21 09:23:20;;;;;;;8.20;4.60;;;;;;;;;;5090387;28;20201;-74
2021/12/21 09:25:47;;;;;;;14.98;5.28;;;;;;;;;;5079225;28;20666;-73
2021/12/21 09:28:14;;;;;;;7.93;4.50;;;;;;;;;;5075340;28;20261;-74
2021/12/21 09:30:41;;;;;;;6.55;4.97;;;;;;;;;;5086901;28;20220;-75
2021/12/21 09:33:08;;;;;;;10.07;5.93;;;;;;;;;;5089268;28;20193;-74
2021/12/21 09:35:36;;;;;;;7.85;5.22;;;;;;;;;;5089258;28;20189;-76
2021/12/21 09:38:03;;;;;;;7.50;4.90;;;;;;;;;;5088282;28;20225;-73
2021/12/21 09:40:32;;;;;;;8.80;4.20;;;;;;;;;;5083344;28;20213;-74
2021/12/21 09:43:00;;;;;;;6.95;4.57;;;;;;;;;;5075788;28;20190;-75
2021/12/21 09:45:27;;;;;;;7.80;5.15;;;;;;;;;;5072015;28;20201;-74
2021/12/21 09:47:55;;;;;;;6.95;4.10;;;;;;;;;;5084382;28;20201;-76
2021/12/21 09:50:25;;;;;;;5.47;3.97;;;;;;;;;;5086932;28;20217;-74
2021/12/21 09:52:53;;;;;;;6.72;4.55;;;;;;;;;;5087353;28;20551;-74
2021/12/21 09:55:20;;;;;;;7.47;4.35;;;;;;;;;;5087209;28;20563;-73
2021/12/21 09:57:49;;;;;;;9.43;4.65;;;;;;;;;;5057094;28;20202;-75
2021/12/21 10:00:18;;;;;;;8.65;4.40;;;;;;;;;;5073772;28;20209;-73
2021/12/21 10:02:45;;;;;;;9.98;5.05;;;;;;;;;;5070753;28;20196;-75
2021/12/21 10:05:14;;;;;;;5.05;3.58;;;;;;;;;;5088270;28;20203;-75
2021/12/21 10:07:41;;;;;;;5.38;4.32;;;;;;;;;;5088934;28;20212;-74
2021/12/21 10:10:10;;;;;;;5.18;4.15;;;;;;;;;;5087823;28;20210;-73
2021/12/21 10:12:39;;;;;;;6.00;3.97;;;;;;;;;;5072747;28;20343;-74
2021/12/21 10:15:09;;;;;;;9.70;3.90;;;;;;;;;;5075452;28;20647;-75
2021/12/21 10:17:37;;;;;;;8.27;3.85;;;;;;;;;;5062972;28;20586;-74
2021/12/21 10:20:06;;;;;;;8.23;4.18;;;;;;;;;;5088338;28;20227;-76
2021/12/21 10:22:33;;;;;;;7.70;4.13;;;;;;;;;;5087665;28;20197;-75
2021/12/21 10:25:00;;;;;;;4.72;3.30;;;;;;;;;;5088229;28;20204;-74
2021/12/21 10:27:28;;;;;;;6.15;3.97;;;;;;;;;;5085253;28;20193;-75
2021/12/21 10:29:57;;;;;;;7.50;3.90;;;;;;;;;;5079530;28;20225;-75
2021/12/21 10:32:26;;;;;;;5.53;3.28;;;;;;;;;;5075544;28;20193;-75
2021/12/21 10:34:55;;;;;;;8.95;3.72;;;;;;;;;;5068920;28;20198;-74
2021/12/21 10:37:24;;;;;;;4.55;3.22;;;;;;;;;;5086343;28;20219;-75
2021/12/21 10:40:02;;;;;;;7.32;3.13;;;;;;;;;;5088598;28;20316;-75
2021/12/21 10:42:29;;;;;;;10.18;5.22;;;;;;;;;;5087809;28;20312;-74
2021/12/21 10:45:03;;;;;;;8.88;4.10;;;;;;;;;;5081385;28;20200;-74
2021/12/21 10:47:31;;;;;;;10.77;5.00;;;;;;;;;;5073425;28;20641;-74
2021/12/21 10:49:58;;;;;;;8.90;4.53;;;;;;;;;;5082766;28;20223;-74
2021/12/21 10:52:26;;;;;;;13.85;5.70;;;;;;;;;;5085942;28;20186;-73
2021/12/21 10:54:53;;;;;;;6.90;4.00;;;;;;;;;;5088493;28;20552;-74
2021/12/21 10:57:21;;;;;;;6.70;3.78;;;;;;;;;;5085428;28;20634;-75
2021/12/21 10:59:49;;;;;;;6.47;3.20;;;;;;;;;;5086462;28;20662;-75
2021/12/21 11:02:18;;;;;;;8.10;4.20;;;;;;;;;;5059343;28;20213;-75
2021/12/21 11:04:48;;;;;;;4.57;3.95;;;;;;;;;;5080299;28;20199;-74
2021/12/21 11:07:26;;;;;;;6.22;3.80;;;;;;;;;;5067545;28;20256;-75
2021/12/21 11:09:55;;;;;;;6.10;4.78;;;;;;;;;;5061180;28;20212;-75
2021/12/21 11:12:24;;;;;;;6.45;3.55;;;;;;;;;;5072046;28;20285;-75
2021/12/21 11:14:53;;;;;;;5.90;3.60;;;;;;;;;;5074690;28;20201;-74
2021/12/21 11:17:21;;;;;;;6.40;3.65;;;;;;;;;;5060708;28;20213;-75
2021/12/21 11:19:51;;;;;;;6.72;3.00;;;;;;;;;;5092063;28;20232;-76
2021/12/21 11:22:19;;;;;;;4.10;2.95;;;;;;;;;;5092408;28;20231;-76
2021/12/21 11:24:47;;;;;;;5.40;3.17;;;;;;;;;;5094002;28;20185;-75
2021/12/21 11:27:16;;;;;;;8.13;3.70;;;;;;;;;;5091461;28;20189;-75
2021/12/21 11:29:43;;;;;;;8.05;4.40;;;;;;;;;;5084360;28;20217;-76
2021/12/21 11:32:11;;;;;;;6.93;3.72;;;;;;;;;;5078718;28;20549;-75
2021/12/21 11:34:56;;;;;;;7.45;3.95;;;;;;;;;;5086750;28;20686;-75
2021/12/21 11:37:27;;;;;;;9.95;4.20;;;;;;;;;;5089566;28;20208;-76
2021/12/21 11:39:54;;;;;;;7.45;3.78;;;;;;;;;;5090194;28;20224;-75
2021/12/21 11:42:25;;;;;;;12.18;6.38;;;;;;;;;;5073149;28;20201;-75
2021/12/21 11:44:54;;;;;;;8.63;4.30;;;;;;;;;;5080472;28;20227;-74
2021/12/21 11:47:26;;;;;;;8.27;3.40;;;;;;;;;;5076685;28;20194;-75
2021/12/21 11:49:58;;;;;;;10.27;4.18;;;;;;;;;;5081225;28;20713;-75
2021/12/21 11:52:28;;;;;;;5.00;3.38;;;;;;;;;;5091087;28;20189;-74
2021/12/21 11:54:56;;;;;;;4.10;3.42;;;;;;;;;;5089725;28;20283;-75
2021/12/21 11:57:37;;;;;;;7.10;3.53;;;;;;;;;;5073034;28;20196;-76
2021/12/21 12:00:07;;;;;;;5.90;3.10;;;;;;;;;;5090911;28;20221;-75
2021/12/21 12:02:34;;;;;;;4.47;3.47;;;;;;;;;;5077836;28;20197;-76
2021/12/21 12:05:02;;;;;;;5.88;3.80;;;;;;;;;;5078499;28;20197;-74
2021/12/21 12:07:34;;;;;;;4.38;2.92;;;;;;;;;;5091403;28;20189;-74
2021/12/21 12:10:06;;;;;;;8.60;3.47;;;;;;;;;;5090169;28;20697;-75
2021/12/21 12:12:33;;;;;;;6.90;3.20;;;;;;;;;;5091058;28;20189;-75
2021/12/21 12:15:01;;;;;;;3.70;3.30;;;;;;;;;;5089213;28;20209;-75
2021/12/21 12:17:30;;;;;;;4.53;3.20;;;;;;;;;;5084468;28;20221;-75
2021/12/21 12:20:02;;;;;;;5.88;3.60;;;;;;;;;;5076266;28;20274;-75
2021/12/21 12:22:38;;;;;;;4.95;3.13;;;;;;;;;;5070438;28;20202;-74
2021/12/21 12:25:06;;;;;;;7.00;3.33;;;;;;;;;;5051838;28;20194;-73
2021/12/21 12:27:34;;;;;;;4.88;3.55;;;;;;;;;;5052014;28;20205;-75
2021/12/21 12:30:01;;;;;;;3.80;3.10;;;;;;;;;;5070400;28;20224;-75
2021/12/21 12:32:33;;;;;;;5.05;3.60;;;;;;;;;;5088185;28;20559;-74
2021/12/21 12:35:03;;;;;;;6.28;2.95;;;;;;;;;;5077423;28;20190;-73
2021/12/21 12:37:30;;;;;;;5.65;4.00;;;;;;;;;;5077930;28;20199;-75
2021/12/21 12:40:06;;;;;;;3.90;2.80;;;;;;;;;;5088386;28;20232;-75
2021/12/21 12:42:34;;;;;;;5.15;3.72;;;;;;;;;;5089782;28;20199;-75
2021/12/21 12:45:05;;;;;;;8.02;4.00;;;;;;;;;;5089706;28;20276;-74
2021/12/21 12:47:33;;;;;;;7.20;3.60;;;;;;;;;;5088697;28;20201;-73
2021/12/21 12:50:00;;;;;;;9.85;3.95;;;;;;;;;;5075752;28;20206;-74
2021/12/21 12:52:30;;;;;;;5.45;3.80;;;;;;;;;;5076810;28;20201;-74
2021/12/21 12:54:59;;;;;;;7.15;3.70;;;;;;;;;;5090069;28;20280;-75
2021/12/21 12:57:29;;;;;;;6.60;3.47;;;;;;;;;;5087838;28;20200;-74
2021/12/21 12:59:57;;;;;;;3.55;3.25;;;;;;;;;;5071163;28;20500;-75
2021/12/21 13:02:25;;;;;;;8.63;3.80;;;;;;;;;;5070746;28;20204;-74
2021/12/21 13:04:53;;;;;;;5.20;3.38;;;;;;;;;;5091669;28;20669;-74
2021/12/21 13:07:28;;;;;;;7.30;4.00;;;;;;;;;;5091251;28;20561;-75
2021/12/21 13:10:05;;;;;;;6.32;3.72;;;;;;;;;;5092459;28;20212;-74
2021/12/21 13:12:32;;;;;;;6.60;3.75;;;;;;;;;;5057719;28;20194;-75
2021/12/21 13:14:59;;;;;;;6.82;3.38;;;;;;;;;;5073296;28;20202;-75
2021/12/21 13:17:26;;;;;;;4.72;3.45;;;;;;;;;;5069915;28;20234;-74
2021/12/21 13:19:53;;;;;;;6.25;3.35;;;;;;;;;;5070533;28;20588;-75
2021/12/21 13:22:22;;;;;;;4.80;3.15;;;;;;;;;;5089375;28;20193;-77
2021/12/21 13:24:51;;;;;;;6.40;4.25;;;;;;;;;;5071376;28;20606;-75
2021/12/21 13:27:21;;;;;;;5.32;3.22;;;;;;;;;;5091262;28;20197;-74
2021/12/21 13:29:50;;;;;;;6.00;3.28;;;;;;;;;;5089927;28;20780;-74
2021/12/21 13:32:19;;;;;;;5.93;3.42;;;;;;;;;;5073438;28;20194;-75
2021/12/21 13:34:49;;;;;;;4.53;2.90;;;;;;;;;;5057395;28;20186;-73
2021/12/21 13:37:18;;;;;;;6.70;3.28;;;;;;;;;;5054963;28;20560;-75
2021/12/21 13:39:47;;;;;;;6.60;3.55;;;;;;;;;;5074591;28;20217;-75
2021/12/21 13:42:16;;;;;;;6.40;3.38;;;;;;;;;;5087776;28;20197;-74
2021/12/21 13:44:47;;;;;;;6.05;3.90;;;;;;;;;;5070430;28;20185;-75
2021/12/21 13:47:19;;;;;;;7.30;4.15;;;;;;;;;;5087360;28;20366;-76
2021/12/21 13:49:54;;;;;;;8.77;4.28;;;;;;;;;;5067556;28;20217;-74
2021/12/21 13:52:22;;;;;;;8.68;3.95;;;;;;;;;;5076319;28;20193;-75
2021/12/21 13:54:49;;;;;;;10.23;3.70;;;;;;;;;;5084793;28;20713;-75
2021/12/21 13:57:16;;;;;;;6.07;3.45;;;;;;;;;;5088462;28;20193;-75
2021/12/21 13:59:46;;;;;;;6.35;3.15;;;;;;;;;;5070915;28;20561;-75
2021/12/21 14:02:28;;;;;;;8.18;3.70;;;;;;;;;;5088784;28;20193;-74
2021/12/21 14:05:01;;;;;;;9.93;4.95;;;;;;;;;;5072777;28;20212;-74
2021/12/21 14:07:31;;;;;;;4.22;3.83;;;;;;;;;;5075634;28;20190;-74
2021/12/21 14:10:02;;;;;;;5.32;3.50;;;;;;;;;;5085267;28;20216;-76
2021/12/21 14:12:29;;;;;;;5.75;3.50;;;;;;;;;;5087391;28;20193;-75
2021/12/21 14:14:56;;;;;;;6.28;3.03;;;;;;;;;;5087354;28;20198;-76
2021/12/21 14:17:29;;;;;;;8.05;2.97;;;;;;;;;;5089145;28;20243;-74
2021/12/21 14:19:56;;;;;;;6.88;3.90;;;;;;;;;;5087372;28;20217;-74
2021/12/21 14:22:24;;;;;;;5.55;3.05;;;;;;;;;;5073763;28;20193;-74
2021/12/21 14:24:52;;;;;;;11.65;3.33;;;;;;;;;;5059077;28;20201;-75
2021/12/21 14:27:19;;;;;;;5.82;3.50;;;;;;;;;;5088863;28;20551;-75
2021/12/21 14:29:47;;;;;;;4.75;3.20;;;;;;;;;;5066629;28;20227;-75
2021/12/21 14:32:18;;;;;;;4.32;3.13;;;;;;;;;;5088773;28;20734;-75
2021/12/21 14:34:47;;;;;;;5.22;3.30;;;;;;;;;;5088549;28;20284;-76
2021/12/21 14:37:16;;;;;;;3.13;2.75;;;;;;;;;;5077708;28;20285;-75
2021/12/21 14:39:46;;;;;;;7.45;3.08;;;;;;;;;;5057931;28;20701;-76
2021/12/21 14:42:14;;;;;;;5.72;3.50;;;;;;;;;;5070230;28;20202;-76
2021/12/21 14:44:43;;;;;;;6.55;3.40;;;;;;;;;;5076717;28;20527;-76
2021/12/21 14:47:11;;;;;;;5.30;3.47;;;;;;;;;;5093109;28;20193;-75
2021/12/21 14:49:42;;;;;;;8.70;3.28;;;;;;;;;;5072704;28;20213;-75
2021/12/21 14:52:17;;;;;;;6.00;3.78;;;;;;;;;;5093602;28;20225;-75
2021/12/21 14:54:51;;;;;;;6.63;3.80;;;;;;;;;;5078308;28;20209;-74
2021/12/21 14:57:19;;;;;;;4.20;3.38;;;;;;;;;;5066100;28;20608;-74
2021/12/21 14:59:50;;;;;;;7.35;3.80;;;;;;;;;;5091915;28;20235;-75
2021/12/21 15:02:48;;;;;;;7.85;4.65;;;;;;;;;;5091141;28;20201;-74
2021/12/21 15:05:12;;;;;;;8.30;3.70;;;;;;;;;;5077364;28;20495;-76
2021/12/21 15:07:41;;;;;;;8.60;4.40;;;;;;;;;;5089149;28;20205;-75
2021/12/21 15:10:09;;;;;;;6.47;3.97;;;;;;;;;;5094666;28;20724;-76
2021/12/21 15:12:36;;;;;;;8.15;4.82;;;;;;;;;;5075226;28;20196;-75
2021/12/21 15:15:04;;;;;;;5.82;3.70;;;;;;;;;;5088911;28;20190;-75
2021/12/21 15:17:31;;;;;;;7.07;3.50;;;;;;;;;;5077078;28;20214;-77
2021/12/21 15:19:58;;;;;;;5.47;4.25;;;;;;;;;;5081688;28;20584;-76
2021/12/21 15:22:26;;;;;;;5.57;4.13;;;;;;;;;;5092797;28;20542;-75
2021/12/21 15:24:54;;;;;;;8.00;5.18;;;;;;;;;;5091469;28;20665;-74
2021/12/21 15:27:22;;;;;;;9.07;4.13;;;;;;;;;;5092524;28;20193;-75
2021/12/21 15:29:49;;;;;;;9.50;5.70;;;;;;;;;;5090074;28;20213;-74